Time;durP1;ratioP1;P1;durP2;ratioP2;P2;SDS_P1;SDS_P2;PMS_P1;PMS_P2;Temp;Humidity;BMP_temperature;BMP_pressure;BME280_temperature;BME280_humidity;BME280_pressure;Samples;Min_cycle;Max_cycle;Signal;HPM_P1;HPM_P2
2022/05/16 00:00:19;;;;;;;;;;;;;;;19.96;53.42;101204.72;1031836;28;697;-60
2022/05/16 00:01:09;;;;;;;;;;;;;;;19.96;53.72;101204.72;1031843;28;608;-60
2022/05/16 00:02:00;;;;;;;;;;;;;;;19.97;53.65;101204.56;1030181;28;651;-60
2022/05/16 00:02:50;;;;;;;;;;;;;;;19.97;53.56;101198.31;1031303;28;662;-60
2022/05/16 00:03:40;;;;;;;;;;;;;;;19.97;53.41;101201.00;1031510;28;654;-60
2022/05/16 00:04:31;;;;;;;;;;;;;;;19.96;54.26;101199.31;1029899;28;734;-60
2022/05/16 00:05:21;;;;;;;;;;;;;;;19.95;53.62;101197.59;1029572;28;654;-61
2022/05/16 00:06:12;;;;;;;;;;;;;;;19.95;53.43;101200.31;1026180;28;718;-61
2022/05/16 00:07:02;;;;;;;;;;;;;;;19.95;53.84;101192.19;1026124;28;631;-61
2022/05/16 00:07:53;;;;;;;;;;;;;;;19.95;53.51;101194.91;1031949;28;595;-60
2022/05/16 00:08:43;;;;;;;;;;;;;;;19.94;53.62;101196.75;1029686;28;709;-61
2022/05/16 00:09:34;;;;;;;;;;;;;;;19.94;54.29;101196.75;1028552;28;682;-61
2022/05/16 00:10:24;;;;;;;;;;;;;;;19.94;53.52;101191.34;1029609;28;698;-61
2022/05/16 00:11:14;;;;;;;;;;;;;;;19.94;54.11;101201.31;1029088;28;682;-61
2022/05/16 00:12:05;;;;;;;;;;;;;;;19.94;53.71;101193.19;1029575;28;759;-61
2022/05/16 00:12:55;;;;;;;;;;;;;;;19.93;53.45;101191.50;1029760;28;619;-61
2022/05/16 00:13:47;;;;;;;;;;;;;;;19.93;53.60;101199.59;1029638;28;662;-61
2022/05/16 00:14:37;;;;;;;;;;;;;;;19.93;53.69;101196.91;1028435;28;623;-60
2022/05/16 00:15:28;;;;;;;;;;;;;;;19.92;53.88;101192.50;1029690;28;713;-60
2022/05/16 00:16:18;;;;;;;;;;;;;;;19.93;53.99;101191.50;1029592;28;702;-60
2022/05/16 00:17:08;;;;;;;;;;;;;;;19.91;54.07;101191.63;1029702;28;639;-60
2022/05/16 00:17:59;;;;;;;;;;;;;;;19.92;54.27;101187.09;1028877;28;651;-60
2022/05/16 00:18:51;;;;;;;;;;;;;;;19.91;54.29;101186.22;1029792;28;679;-59
2022/05/16 00:19:41;;;;;;;;;;;;;;;19.91;53.63;101188.94;1029482;28;1894;-60
2022/05/16 00:20:31;;;;;;;;;;;;;;;19.91;54.08;101191.63;1029592;28;604;-60
2022/05/16 00:21:22;;;;;;;;;;;;;;;19.90;53.89;101181.81;1028582;28;679;-60
2022/05/16 00:22:12;;;;;;;;;;;;;;;19.91;53.68;101179.97;1029638;28;630;-60
2022/05/16 00:23:03;;;;;;;;;;;;;;;19.91;54.05;101185.38;1029425;28;1675;-60
2022/05/16 00:23:53;;;;;;;;;;;;;;;19.89;53.69;101172.00;1029478;28;627;-60
2022/05/16 00:24:44;;;;;;;;;;;;;;;19.89;53.60;101177.41;1029086;28;705;-60
2022/05/16 00:25:34;;;;;;;;;;;;;;;19.89;54.20;101180.13;1030222;28;697;-60
2022/05/16 00:26:25;;;;;;;;;;;;;;;19.88;53.86;101174.88;1030349;28;635;-60
2022/05/16 00:27:15;;;;;;;;;;;;;;;19.89;53.90;101173.84;1030794;28;874;-60
2022/05/16 00:28:06;;;;;;;;;;;;;;;19.88;53.84;101172.19;1033691;28;749;-60
2022/05/16 00:28:56;;;;;;;;;;;;;;;19.88;53.75;101172.19;1034269;28;721;-60
2022/05/16 00:29:47;;;;;;;;;;;;;;;19.89;54.28;101173.84;1029764;28;631;-60
2022/05/16 00:30:37;;;;;;;;;;;;;;;19.88;54.55;101169.47;1029771;28;651;-59
2022/05/16 00:31:27;;;;;;;;;;;;;;;19.87;54.09;101167.78;1029727;28;635;-59
2022/05/16 00:32:18;;;;;;;;;;;;;;;19.88;54.25;101172.19;1029569;28;689;-59
2022/05/16 00:33:09;;;;;;;;;;;;;;;19.87;54.02;101167.78;1029607;28;683;-59
2022/05/16 00:33:59;;;;;;;;;;;;;;;19.87;54.30;101168.63;1030163;28;666;-59
2022/05/16 00:34:49;;;;;;;;;;;;;;;19.86;53.98;101166.06;1029521;28;647;-60
2022/05/16 00:35:40;;;;;;;;;;;;;;;19.86;53.86;101166.06;1029593;28;659;-60
2022/05/16 00:36:30;;;;;;;;;;;;;;;19.85;54.13;101170.63;1029509;28;713;-60
2022/05/16 00:37:21;;;;;;;;;;;;;;;19.86;54.12;101166.06;1029567;28;737;-60
2022/05/16 00:38:11;;;;;;;;;;;;;;;19.84;54.33;101159.97;1028821;28;714;-60
2022/05/16 00:39:01;;;;;;;;;;;;;;;19.84;53.91;101162.66;1029534;28;674;-60
2022/05/16 00:39:52;;;;;;;;;;;;;;;19.85;54.05;101164.38;1029419;28;1967;-60
2022/05/16 00:40:42;;;;;;;;;;;;;;;19.85;54.58;101158.97;1029546;28;698;-63
2022/05/16 00:41:33;;;;;;;;;;;;;;;19.84;54.19;101163.50;1028955;28;690;-60
2022/05/16 00:42:23;;;;;;;;;;;;;;;19.85;54.46;101164.38;1029370;28;651;-60
2022/05/16 00:43:14;;;;;;;;;;;;;;;19.85;54.11;101164.38;1029051;28;722;-60
2022/05/16 00:44:04;;;;;;;;;;;;;;;19.84;54.03;101163.50;1026303;28;655;-61
2022/05/16 00:44:55;;;;;;;;;;;;;;;19.84;53.86;101162.66;1025227;29;674;-60
2022/05/16 00:45:50;;;;;;;;;;;;;;;19.85;53.89;101167.06;1029446;28;603;-60
2022/05/16 00:46:40;;;;;;;;;;;;;;;19.84;54.04;101162.66;1029345;28;644;-61
2022/05/16 00:47:31;;;;;;;;;;;;;;;19.84;54.34;101168.06;1029433;28;576;-60
2022/05/16 00:48:21;;;;;;;;;;;;;;;19.84;54.65;101168.06;1028876;28;648;-60
2022/05/16 00:49:12;;;;;;;;;;;;;;;19.83;54.38;101167.22;1026326;28;643;-60
2022/05/16 00:50:02;;;;;;;;;;;;;;;19.84;54.41;101168.06;1025775;28;620;-60
2022/05/16 00:50:53;;;;;;;;;;;;;;;19.83;54.32;101166.38;1028614;28;1261;-61
2022/05/16 00:51:43;;;;;;;;;;;;;;;19.83;54.08;101163.66;1029579;28;650;-60
2022/05/16 00:52:34;;;;;;;;;;;;;;;19.83;54.79;101167.22;1033469;28;666;-60
2022/05/16 00:53:24;;;;;;;;;;;;;;;19.83;53.92;101161.81;1025957;28;1081;-61
2022/05/16 00:54:14;;;;;;;;;;;;;;;19.84;54.58;101159.97;1026001;28;631;-60
2022/05/16 00:55:05;;;;;;;;;;;;;;;19.83;54.51;101164.50;1025424;29;639;-60
2022/05/16 00:55:55;;;;;;;;;;;;;;;19.83;54.55;101156.41;1026029;28;643;-61
2022/05/16 00:56:46;;;;;;;;;;;;;;;19.82;54.35;101160.09;1024956;29;658;-60
2022/05/16 00:57:36;;;;;;;;;;;;;;;19.82;54.32;101164.66;1026192;28;673;-60
2022/05/16 00:58:27;;;;;;;;;;;;;;;19.81;54.61;101152.13;1025978;28;674;-60
2022/05/16 00:59:17;;;;;;;;;;;;;;;19.82;54.39;101161.97;1025922;28;646;-60
2022/05/16 01:00:07;;;;;;;;;;;;;;;19.81;54.11;101158.41;1025115;29;718;-60
2022/05/16 01:00:58;;;;;;;;;;;;;;;19.80;54.23;101155.84;1021349;29;710;-59
2022/05/16 01:05:16;;;;;;;;;;;;;;;19.79;54.79;101146.88;1026480;28;693;-61
2022/05/16 01:06:06;;;;;;;;;;;;;;;19.79;54.36;101149.59;1025993;28;627;-60
2022/05/16 01:06:57;;;;;;;;;;;;;;;19.80;54.07;101150.44;1025577;29;655;-60
2022/05/16 01:07:47;;;;;;;;;;;;;;;19.79;54.15;101151.44;1026054;28;678;-60
2022/05/16 01:08:39;;;;;;;;;;;;;;;19.79;54.84;101148.72;1025935;28;587;-60
2022/05/16 01:09:29;;;;;;;;;;;;;;;19.79;54.27;101154.16;1025056;28;662;-60
2022/05/16 01:10:19;;;;;;;;;;;;;;;19.78;54.61;101145.19;1026549;28;1751;-60
2022/05/16 01:11:10;;;;;;;;;;;;;;;19.77;54.84;101152.44;1025438;29;678;-60
2022/05/16 01:12:00;;;;;;;;;;;;;;;19.77;54.90;101151.59;1024836;29;683;-60
2022/05/16 01:12:51;;;;;;;;;;;;;;;19.77;54.52;101148.88;1025338;29;616;-61
2022/05/16 01:13:41;;;;;;;;;;;;;;;19.77;54.42;101146.19;1025287;29;635;-61
2022/05/16 01:14:32;;;;;;;;;;;;;;;19.75;54.45;101140.91;1025431;29;667;-61
2022/05/16 01:15:22;;;;;;;;;;;;;;;19.76;54.49;101147.19;1024747;29;643;-60
2022/05/16 01:16:13;;;;;;;;;;;;;;;19.76;54.44;101141.78;1025271;29;726;-61
2022/05/16 01:17:03;;;;;;;;;;;;;;;19.75;55.00;101138.22;1025718;28;730;-62
2022/05/16 01:17:54;;;;;;;;;;;;;;;19.75;54.54;101138.22;1025517;28;713;-61
2022/05/16 01:18:44;;;;;;;;;;;;;;;19.75;54.79;101140.91;1025406;29;777;-61
2022/05/16 01:19:34;;;;;;;;;;;;;;;19.74;54.98;101139.22;1025336;29;1907;-60
2022/05/16 01:20:25;;;;;;;;;;;;;;;19.74;54.77;101136.50;1024948;29;655;-61
2022/05/16 01:21:15;;;;;;;;;;;;;;;19.74;54.94;101131.09;1025365;29;714;-61
2022/05/16 01:22:06;;;;;;;;;;;;;;;19.74;54.07;101124.84;1025356;29;655;-60
2022/05/16 01:22:56;;;;;;;;;;;;;;;19.73;54.39;101136.66;1026764;28;1700;-60
2022/05/16 01:23:47;;;;;;;;;;;;;;;19.73;54.97;101134.81;1028937;28;635;-60
2022/05/16 01:24:38;;;;;;;;;;;;;;;19.72;54.35;101135.81;1028864;28;714;-61
2022/05/16 01:25:28;;;;;;;;;;;;;;;19.72;54.42;101130.41;1029312;28;872;-60
2022/05/16 01:26:19;;;;;;;;;;;;;;;19.72;55.02;101130.41;1029347;28;677;-61
2022/05/16 01:27:09;;;;;;;;;;;;;;;19.71;54.80;101123.28;1029321;28;649;-61
2022/05/16 01:28:01;;;;;;;;;;;;;;;19.71;55.08;101134.09;1029366;28;662;-60
2022/05/16 01:28:51;;;;;;;;;;;;;;;19.71;54.80;101126.00;1029357;28;610;-61
2022/05/16 01:29:42;;;;;;;;;;;;;;;19.72;55.12;101126.84;1029285;28;689;-60
2022/05/16 01:30:33;;;;;;;;;;;;;;;19.72;54.72;101127.69;1025517;28;717;-60
2022/05/16 01:31:23;;;;;;;;;;;;;;;19.71;54.36;101131.41;1024997;29;638;-60
2022/05/16 01:32:14;;;;;;;;;;;;;;;19.71;54.62;101128.69;1028840;28;639;-60
2022/05/16 01:33:04;;;;;;;;;;;;;;;19.72;54.72;101126.84;1029504;28;702;-60
2022/05/16 01:33:54;;;;;;;;;;;;;;;19.72;54.62;101125.00;1029313;28;710;-59
2022/05/16 01:34:45;;;;;;;;;;;;;;;19.70;54.39;101113.50;1025997;28;927;-60
2022/05/16 01:35:35;;;;;;;;;;;;;;;19.70;54.86;101121.63;1025048;29;639;-61
2022/05/16 01:36:26;;;;;;;;;;;;;;;19.71;54.42;101119.72;1028739;28;662;-59
2022/05/16 01:37:16;;;;;;;;;;;;;;;19.70;55.05;101112.66;1030747;28;717;-60
2022/05/16 01:38:19;;;;;;;;;;;;;;;19.70;54.76;101113.50;1030818;28;619;-60
2022/05/16 01:39:09;;;;;;;;;;;;;;;19.71;54.65;101109.75;1034190;28;721;-60
2022/05/16 01:39:59;;;;;;;;;;;;;;;19.71;55.13;101108.91;1033653;28;749;-59
2022/05/16 01:40:50;;;;;;;;;;;;;;;19.70;54.50;101112.66;1033518;28;725;-60
2022/05/16 01:41:40;;;;;;;;;;;;;;;19.70;55.04;101110.81;1029805;28;709;-60
2022/05/16 01:42:31;;;;;;;;;;;;;;;19.69;55.09;101105.53;1029639;28;655;-60
2022/05/16 01:43:21;;;;;;;;;;;;;;;19.68;54.31;101107.41;1026145;28;726;-60
2022/05/16 01:44:11;;;;;;;;;;;;;;;19.68;54.69;101107.41;1025035;29;698;-60
2022/05/16 01:45:02;;;;;;;;;;;;;;;19.68;55.22;101101.13;1029296;28;647;-60
2022/05/16 01:45:52;;;;;;;;;;;;;;;19.68;54.83;101096.56;1029282;28;683;-61
2022/05/16 01:46:43;;;;;;;;;;;;;;;19.68;54.85;101101.97;1029267;28;1171;-59
2022/05/16 01:47:33;;;;;;;;;;;;;;;19.69;55.14;101102.84;1026238;28;706;-59
2022/05/16 01:48:24;;;;;;;;;;;;;;;19.68;54.63;101087.63;1025001;29;706;-59
2022/05/16 01:49:14;;;;;;;;;;;;;;;19.67;54.63;101086.75;1028743;28;651;-59
2022/05/16 01:50:05;;;;;;;;;;;;;;;19.68;55.12;101095.72;1029296;28;651;-59
2022/05/16 01:50:55;;;;;;;;;;;;;;;19.67;54.83;101091.31;1032519;28;1210;-59
2022/05/16 01:51:45;;;;;;;;;;;;;;;19.66;54.76;101084.22;1032633;28;694;-60
2022/05/16 01:52:36;;;;;;;;;;;;;;;19.67;54.50;101088.63;1030695;28;1784;-59
2022/05/16 01:53:26;;;;;;;;;;;;;;;19.66;54.31;101085.06;1028291;28;1129;-59
2022/05/16 01:54:17;;;;;;;;;;;;;;;19.65;55.28;101086.06;1029181;28;654;-59
2022/05/16 01:55:07;;;;;;;;;;;;;;;19.64;55.33;101087.06;1029380;28;726;-59
2022/05/16 01:55:57;;;;;;;;;;;;;;;19.65;54.66;101083.34;1029262;28;681;-60
2022/05/16 01:56:48;;;;;;;;;;;;;;;19.65;54.80;101085.22;1029250;28;654;-59
2022/05/16 01:57:38;;;;;;;;;;;;;;;19.64;54.90;101087.06;1029144;28;841;-59
2022/05/16 01:58:29;;;;;;;;;;;;;;;19.64;55.29;101087.06;1029222;28;658;-59
2022/05/16 01:59:19;;;;;;;;;;;;;;;19.64;55.24;101081.66;1029312;28;678;-59
2022/05/16 02:00:10;;;;;;;;;;;;;;;19.64;55.14;101081.66;1029177;28;714;-59
2022/05/16 02:01:00;;;;;;;;;;;;;;;19.64;54.57;101083.50;1029341;28;635;-59
2022/05/16 02:01:51;;;;;;;;;;;;;;;19.63;55.22;101082.66;1025866;28;693;-59
2022/05/16 02:02:42;;;;;;;;;;;;;;;19.63;54.78;101081.81;1025438;28;670;-59
2022/05/16 02:03:32;;;;;;;;;;;;;;;19.63;55.29;101084.50;1028733;28;604;-59
2022/05/16 02:04:23;;;;;;;;;;;;;;;19.64;54.70;101084.34;1029197;28;659;-59
2022/05/16 02:05:13;;;;;;;;;;;;;;;19.63;55.11;101082.66;1029299;28;635;-59
2022/05/16 02:06:03;;;;;;;;;;;;;;;19.62;54.54;101078.25;1029181;28;655;-59
2022/05/16 02:06:54;;;;;;;;;;;;;;;19.63;54.98;101085.34;1029236;28;674;-59
2022/05/16 02:07:45;;;;;;;;;;;;;;;19.63;54.55;101084.50;1028491;28;718;-59
2022/05/16 02:08:35;;;;;;;;;;;;;;;19.63;54.80;101085.34;1029096;28;651;-59
2022/05/16 02:09:26;;;;;;;;;;;;;;;19.63;55.13;101081.81;1029098;28;635;-59
2022/05/16 02:10:16;;;;;;;;;;;;;;;19.61;55.02;101087.34;1029146;28;658;-60
2022/05/16 02:11:06;;;;;;;;;;;;;;;19.61;55.46;101083.81;1029145;28;615;-59
2022/05/16 02:11:57;;;;;;;;;;;;;;;19.60;54.79;101080.25;1025927;28;678;-59
2022/05/16 02:12:47;;;;;;;;;;;;;;;19.60;55.50;101077.53;1024822;29;659;-59
2022/05/16 02:13:38;;;;;;;;;;;;;;;19.60;55.40;101077.53;1029165;28;709;-59
2022/05/16 02:14:28;;;;;;;;;;;;;;;19.60;55.53;101074.84;1029162;28;662;-59
2022/05/16 02:15:18;;;;;;;;;;;;;;;19.60;55.40;101072.13;1029186;28;717;-59
2022/05/16 02:16:09;;;;;;;;;;;;;;;19.59;54.75;101073.13;1029148;28;682;-59
2022/05/16 02:16:59;;;;;;;;;;;;;;;19.59;54.92;101073.13;1029163;28;686;-60
2022/05/16 02:17:50;;;;;;;;;;;;;;;19.58;54.83;101071.44;1026017;28;754;-60
2022/05/16 02:18:40;;;;;;;;;;;;;;;19.59;55.51;101062.31;1024839;29;647;-60
2022/05/16 02:19:30;;;;;;;;;;;;;;;19.59;55.50;101064.19;1028425;28;1965;-60
2022/05/16 02:20:21;;;;;;;;;;;;;;;19.57;55.15;101064.31;1029064;28;647;-60
2022/05/16 02:24:39;;;;;;;;;;;;;;;19.56;55.58;101062.63;1026521;28;1640;-60
2022/05/16 02:25:29;;;;;;;;;;;;;;;19.56;55.33;101062.63;1027968;28;615;-60
2022/05/16 02:26:20;;;;;;;;;;;;;;;19.56;54.77;101065.31;1028133;28;703;-60
2022/05/16 02:27:10;;;;;;;;;;;;;;;19.56;55.53;101064.47;1029059;28;636;-60
2022/05/16 02:28:01;;;;;;;;;;;;;;;19.55;54.86;101071.72;1028323;28;703;-60
2022/05/16 02:28:51;;;;;;;;;;;;;;;19.55;54.72;101060.06;1029277;28;650;-60
2022/05/16 02:29:42;;;;;;;;;;;;;;;19.55;55.67;101069.03;1029166;28;753;-60
2022/05/16 02:30:32;;;;;;;;;;;;;;;19.55;55.87;101071.72;1028467;28;732;-60
2022/05/16 02:31:23;;;;;;;;;;;;;;;19.55;55.53;101066.31;1029139;28;706;-60
2022/05/16 02:32:13;;;;;;;;;;;;;;;19.55;54.88;101062.78;1029067;28;722;-60
2022/05/16 02:33:04;;;;;;;;;;;;;;;19.55;54.91;101060.06;1029053;28;650;-60
2022/05/16 02:33:54;;;;;;;;;;;;;;;19.55;55.20;101060.91;1029114;28;733;-60
2022/05/16 02:34:44;;;;;;;;;;;;;;;19.54;54.95;101058.38;1029154;28;655;-60
2022/05/16 02:35:35;;;;;;;;;;;;;;;19.53;54.63;101062.94;1029082;28;705;-61
2022/05/16 02:36:25;;;;;;;;;;;;;;;19.54;55.67;101056.50;1028625;28;659;-60
2022/05/16 02:37:16;;;;;;;;;;;;;;;19.52;54.73;101055.00;1029047;28;683;-63
2022/05/16 02:38:06;;;;;;;;;;;;;;;19.52;55.09;101055.84;1029661;28;750;-60
2022/05/16 02:38:57;;;;;;;;;;;;;;;19.53;55.26;101053.97;1028093;28;674;-60
2022/05/16 02:39:47;;;;;;;;;;;;;;;19.53;54.86;101056.66;1029074;28;1898;-60
2022/05/16 02:40:38;;;;;;;;;;;;;;;19.52;55.53;101055.84;1029115;28;639;-60
2022/05/16 02:41:28;;;;;;;;;;;;;;;19.53;55.70;101057.50;1028958;28;655;-61
2022/05/16 02:42:18;;;;;;;;;;;;;;;19.54;55.33;101058.38;1029117;28;694;-61
2022/05/16 02:43:09;;;;;;;;;;;;;;;19.52;55.40;101061.25;1028024;28;722;-60
2022/05/16 02:43:59;;;;;;;;;;;;;;;19.52;55.10;101058.56;1029048;28;624;-60
2022/05/16 02:44:53;;;;;;;;;;;;;;;19.51;55.42;101051.44;1028975;28;655;-60
2022/05/16 02:45:44;;;;;;;;;;;;;;;19.51;55.57;101062.25;1027884;28;624;-60
2022/05/16 02:46:34;;;;;;;;;;;;;;;19.51;55.98;101058.69;1029170;28;694;-60
2022/05/16 02:47:24;;;;;;;;;;;;;;;19.49;55.83;101053.41;1029077;28;711;-61
2022/05/16 02:48:15;;;;;;;;;;;;;;;19.49;55.59;101053.41;1029840;28;647;-60
2022/05/16 02:49:05;;;;;;;;;;;;;;;19.49;55.24;101050.72;1030389;28;651;-60
2022/05/16 02:49:56;;;;;;;;;;;;;;;19.50;55.25;101048.88;1033766;28;749;-61
2022/05/16 02:50:46;;;;;;;;;;;;;;;19.50;55.28;101048.88;1033845;28;1195;-60
2022/05/16 02:51:36;;;;;;;;;;;;;;;19.49;55.41;101050.72;1032098;28;611;-61
2022/05/16 02:52:27;;;;;;;;;;;;;;;19.49;56.02;101053.41;1030664;28;1734;-60
2022/05/16 02:53:17;;;;;;;;;;;;;;;19.49;55.73;101056.13;1029030;28;1023;-60
2022/05/16 02:54:08;;;;;;;;;;;;;;;19.48;55.53;101057.13;1029686;28;776;-61
2022/05/16 02:55:00;;;;;;;;;;;;;;;19.48;55.54;101053.56;1025336;28;717;-61
2022/05/16 02:55:51;;;;;;;;;;;;;;;19.47;54.77;101050.00;1024800;29;631;-61
2022/05/16 02:56:41;;;;;;;;;;;;;;;19.47;56.01;101051.84;1029064;28;670;-61
2022/05/16 02:57:32;;;;;;;;;;;;;;;19.47;54.78;101050.00;1029117;28;631;-61
2022/05/16 02:58:22;;;;;;;;;;;;;;;19.46;55.44;101045.59;1029100;28;626;-60
2022/05/16 02:59:12;;;;;;;;;;;;;;;19.46;55.95;101039.34;1029732;28;678;-62
2022/05/16 03:00:03;;;;;;;;;;;;;;;19.46;55.24;101033.94;1029562;28;706;-61
2022/05/16 03:00:53;;;;;;;;;;;;;;;19.46;55.22;101039.34;1025367;28;709;-60
2022/05/16 03:01:44;;;;;;;;;;;;;;;19.44;55.67;101036.78;1025285;28;744;-61
2022/05/16 03:02:34;;;;;;;;;;;;;;;19.45;54.81;101043.91;1028940;28;603;-61
2022/05/16 03:03:25;;;;;;;;;;;;;;;19.46;55.32;101032.09;1029264;28;730;-61
2022/05/16 03:04:15;;;;;;;;;;;;;;;19.45;55.04;101033.09;1029163;28;652;-60
2022/05/16 03:05:06;;;;;;;;;;;;;;;19.45;55.62;101029.53;1024876;28;674;-61
2022/05/16 03:05:56;;;;;;;;;;;;;;;19.45;55.33;101038.50;1024779;29;630;-61
2022/05/16 03:06:46;;;;;;;;;;;;;;;19.44;55.21;101031.38;1028978;28;639;-61
2022/05/16 03:07:37;;;;;;;;;;;;;;;19.44;55.43;101039.50;1029095;28;705;-61
2022/05/16 03:08:27;;;;;;;;;;;;;;;19.43;55.76;101029.69;1029580;28;693;-61
2022/05/16 03:09:18;;;;;;;;;;;;;;;19.43;55.58;101033.22;1029872;28;670;-60
2022/05/16 03:10:08;;;;;;;;;;;;;;;19.43;55.55;101026.97;1029587;28;658;-61
2022/05/16 03:10:58;;;;;;;;;;;;;;;19.43;55.94;101037.78;1029004;28;658;-61
2022/05/16 03:11:49;;;;;;;;;;;;;;;19.42;55.64;101036.09;1029797;28;663;-60
2022/05/16 03:12:39;;;;;;;;;;;;;;;19.42;55.47;101030.69;1028434;28;725;-61
2022/05/16 03:13:30;;;;;;;;;;;;;;;19.42;55.89;101033.38;1029685;28;762;-60
2022/05/16 03:14:20;;;;;;;;;;;;;;;19.40;55.02;101032.69;1029122;28;623;-60
2022/05/16 03:15:11;;;;;;;;;;;;;;;19.41;55.71;101020.88;1029951;28;709;-61
2022/05/16 03:16:01;;;;;;;;;;;;;;;19.40;55.65;101025.44;1030536;28;701;-62
2022/05/16 03:16:51;;;;;;;;;;;;;;;19.41;55.56;101026.28;1029789;28;630;-61
2022/05/16 03:17:42;;;;;;;;;;;;;;;19.40;55.41;101027.28;1030347;28;638;-61
2022/05/16 03:18:32;;;;;;;;;;;;;;;19.40;55.28;101021.88;1030207;28;677;-61
2022/05/16 03:19:23;;;;;;;;;;;;;;;19.41;55.29;101020.88;1029834;28;701;-61
2022/05/16 03:20:13;;;;;;;;;;;;;;;19.40;55.66;101021.88;1030406;28;712;-61
2022/05/16 03:21:04;;;;;;;;;;;;;;;19.40;55.35;101016.47;1030779;28;881;-61
2022/05/16 03:21:54;;;;;;;;;;;;;;;19.40;55.88;101019.16;1029837;28;665;-61
2022/05/16 03:22:44;;;;;;;;;;;;;;;19.39;54.99;101018.31;1030621;28;1511;-61
2022/05/16 03:23:35;;;;;;;;;;;;;;;19.39;55.30;101017.47;1029743;28;666;-61
2022/05/16 03:24:25;;;;;;;;;;;;;;;19.38;55.98;101018.47;1029741;28;733;-61
2022/05/16 03:25:16;;;;;;;;;;;;;;;19.37;55.34;101017.63;1029880;28;684;-60
2022/05/16 03:26:06;;;;;;;;;;;;;;;19.38;55.83;101011.22;1028952;28;740;-60
2022/05/16 03:26:56;;;;;;;;;;;;;;;19.38;55.74;101013.91;1030010;28;784;-61
2022/05/16 03:27:47;;;;;;;;;;;;;;;19.38;55.86;101010.34;1030013;28;627;-60
2022/05/16 03:28:37;;;;;;;;;;;;;;;19.36;55.80;101018.63;1029843;28;612;-60
2022/05/16 03:29:28;;;;;;;;;;;;;;;19.37;55.26;101017.63;1029896;28;646;-60
2022/05/16 03:30:18;;;;;;;;;;;;;;;19.36;55.74;101018.63;1029828;28;771;-61
2022/05/16 03:31:09;;;;;;;;;;;;;;;19.36;55.76;101007.81;1029792;28;678;-61
2022/05/16 03:31:59;;;;;;;;;;;;;;;19.37;55.58;101017.63;1029281;28;682;-60
2022/05/16 03:32:50;;;;;;;;;;;;;;;19.38;54.98;101018.47;1029643;28;1691;-60
2022/05/16 03:33:40;;;;;;;;;;;;;;;19.38;56.27;101018.47;1029714;28;670;-62
2022/05/16 03:34:31;;;;;;;;;;;;;;;19.37;55.35;101019.47;1029301;28;634;-61
2022/05/16 03:35:21;;;;;;;;;;;;;;;19.36;55.60;101015.06;1028633;28;647;-61
2022/05/16 03:36:12;;;;;;;;;;;;;;;19.36;55.48;101020.47;1029756;28;697;-61
2022/05/16 03:37:02;;;;;;;;;;;;;;;19.35;55.58;101016.91;1029083;28;714;-60
2022/05/16 03:37:52;;;;;;;;;;;;;;;19.36;56.09;101007.81;1029811;28;643;-60
2022/05/16 03:41:01;;;;;;;;;;;;;;;19.35;55.81;101014.22;1029240;28;689;-60
2022/05/16 03:41:52;;;;;;;;;;;;;;;19.35;55.02;101013.38;1029712;28;619;-61
2022/05/16 03:42:42;;;;;;;;;;;;;;;19.35;55.80;101016.06;1029810;28;733;-61
2022/05/16 03:43:33;;;;;;;;;;;;;;;19.34;55.62;101020.66;1028820;28;691;-60
2022/05/16 03:44:23;;;;;;;;;;;;;;;19.34;56.06;101026.06;1029943;28;658;-61
2022/05/16 03:45:14;;;;;;;;;;;;;;;19.34;55.91;101019.81;1030331;28;725;-61
2022/05/16 03:46:04;;;;;;;;;;;;;;;19.32;55.53;101017.25;1029715;28;686;-60
2022/05/16 03:46:54;;;;;;;;;;;;;;;19.33;55.82;101020.81;1029728;28;702;-61
2022/05/16 03:47:45;;;;;;;;;;;;;;;19.33;55.68;101015.41;1029691;28;654;-61
2022/05/16 03:48:35;;;;;;;;;;;;;;;19.32;55.58;101016.41;1029241;28;658;-61
2022/05/16 03:49:26;;;;;;;;;;;;;;;19.33;56.35;101015.41;1029741;28;626;-60
2022/05/16 03:50:16;;;;;;;;;;;;;;;19.33;55.49;101015.41;1028685;28;671;-60
2022/05/16 03:51:07;;;;;;;;;;;;;;;19.32;55.16;101014.53;1029687;28;673;-61
2022/05/16 03:51:59;;;;;;;;;;;;;;;19.32;55.02;101019.09;1029807;28;669;-60
2022/05/16 03:52:49;;;;;;;;;;;;;;;19.32;55.49;101022.66;1022597;28;708;-61
2022/05/16 03:53:46;;;;;;;;;;;;;;;19.32;55.33;101011.00;1022017;29;686;-60
2022/05/16 03:54:36;;;;;;;;;;;;;;;19.32;56.01;101017.25;1021967;29;690;-60
2022/05/16 03:55:26;;;;;;;;;;;;;;;19.32;55.61;101013.69;1026981;28;728;-60
2022/05/16 03:56:17;;;;;;;;;;;;;;;19.32;54.97;101009.13;1025670;29;643;-60
2022/05/16 03:57:07;;;;;;;;;;;;;;;19.32;55.38;101008.28;1025711;29;695;-60
2022/05/16 03:57:58;;;;;;;;;;;;;;;19.31;56.04;101010.13;1025755;29;663;-60
2022/05/16 03:58:48;;;;;;;;;;;;;;;19.31;56.03;101012.00;1026172;29;733;-60
2022/05/16 03:59:39;;;;;;;;;;;;;;;19.31;55.97;101004.72;1026748;29;1927;-60
2022/05/16 04:00:29;;;;;;;;;;;;;;;19.31;55.86;101015.53;1028790;29;663;-59
2022/05/16 04:01:19;;;;;;;;;;;;;;;19.30;55.92;101007.59;1030077;29;811;-60
2022/05/16 04:02:10;;;;;;;;;;;;;;;19.31;55.90;101012.00;1027047;29;620;-60
2022/05/16 04:03:00;;;;;;;;;;;;;;;19.31;56.17;101014.69;1025998;29;635;-60
2022/05/16 04:03:51;;;;;;;;;;;;;;;19.31;55.70;101012.00;1026679;29;651;-59
2022/05/16 04:04:41;;;;;;;;;;;;;;;19.30;55.90;101005.72;1024835;29;655;-60
2022/05/16 04:05:32;;;;;;;;;;;;;;;19.30;55.77;101002.19;1026033;28;714;-59
2022/05/16 04:06:22;;;;;;;;;;;;;;;19.30;55.83;101003.03;1025723;28;674;-60
2022/05/16 04:07:14;;;;;;;;;;;;;;;19.29;55.51;101004.03;1025709;29;623;-60
2022/05/16 04:08:04;;;;;;;;;;;;;;;19.30;55.41;101007.59;1024848;29;546;-61
2022/05/16 04:08:55;;;;;;;;;;;;;;;19.30;55.03;101005.72;1025989;28;702;-60
2022/05/16 04:09:45;;;;;;;;;;;;;;;19.30;55.86;101004.88;1022480;28;546;-61
2022/05/16 04:10:35;;;;;;;;;;;;;;;19.29;55.78;101004.03;1022520;28;690;-61
2022/05/16 04:11:26;;;;;;;;;;;;;;;19.30;55.06;101002.19;1026793;28;710;-61
2022/05/16 04:12:17;;;;;;;;;;;;;;;19.31;55.55;100998.47;1024447;29;651;-61
2022/05/16 04:13:07;;;;;;;;;;;;;;;19.29;56.18;100993.22;1025530;29;694;-60
2022/05/16 04:13:58;;;;;;;;;;;;;;;19.30;55.99;100999.47;1025653;29;705;-60
2022/05/16 04:14:49;;;;;;;;;;;;;;;19.31;55.79;100993.06;1025527;29;722;-60
2022/05/16 04:15:40;;;;;;;;;;;;;;;19.31;55.14;100998.47;1025594;29;714;-60
2022/05/16 04:16:31;;;;;;;;;;;;;;;19.30;55.39;101002.19;1025632;29;659;-60
2022/05/16 04:17:21;;;;;;;;;;;;;;;19.31;56.25;100998.47;1024807;29;675;-60
2022/05/16 04:18:12;;;;;;;;;;;;;;;19.31;55.42;101007.44;1026072;28;635;-60
2022/05/16 04:19:02;;;;;;;;;;;;;;;19.29;55.47;101001.31;1026150;28;964;-60
2022/05/16 04:19:53;;;;;;;;;;;;;;;19.30;55.46;101008.44;1025552;29;1891;-60
2022/05/16 04:20:43;;;;;;;;;;;;;;;19.30;56.29;101010.28;1024586;29;695;-60
2022/05/16 04:21:33;;;;;;;;;;;;;;;19.30;55.54;101011.13;1025671;29;689;-60
2022/05/16 04:22:24;;;;;;;;;;;;;;;19.30;56.36;101007.59;1028829;28;1675;-59
2022/05/16 04:23:14;;;;;;;;;;;;;;;19.29;55.97;101009.44;1029503;28;647;-60
2022/05/16 04:24:05;;;;;;;;;;;;;;;19.29;55.91;101008.59;1029436;28;1699;-60
2022/05/16 04:24:55;;;;;;;;;;;;;;;19.29;55.88;101014.00;1030312;28;634;-60
2022/05/16 04:25:46;;;;;;;;;;;;;;;19.29;55.45;101005.88;1029015;28;694;-60
2022/05/16 04:26:36;;;;;;;;;;;;;;;19.29;55.42;101006.72;1029053;28;646;-60
2022/05/16 04:27:27;;;;;;;;;;;;;;;19.29;55.59;101009.44;1029481;28;671;-60
2022/05/16 04:28:17;;;;;;;;;;;;;;;19.30;55.90;101013.84;1026378;28;663;-60
2022/05/16 04:29:07;;;;;;;;;;;;;;;19.30;55.78;101016.53;1025597;29;690;-60
2022/05/16 04:29:58;;;;;;;;;;;;;;;19.31;55.44;101006.59;1028957;28;671;-60
2022/05/16 04:30:48;;;;;;;;;;;;;;;19.31;55.98;101014.69;1028968;28;714;-60
2022/05/16 04:31:39;;;;;;;;;;;;;;;19.31;55.45;101017.41;1029508;28;650;-60
2022/05/16 04:32:29;;;;;;;;;;;;;;;19.30;55.58;101013.00;1029088;28;627;-60
2022/05/16 04:33:19;;;;;;;;;;;;;;;19.30;56.33;101013.00;1028933;28;650;-60
2022/05/16 04:34:10;;;;;;;;;;;;;;;19.32;55.61;101016.41;1029514;28;616;-60
2022/05/16 04:35:01;;;;;;;;;;;;;;;19.31;56.24;101012.00;1029690;28;699;-60